Time;durP1;ratioP1;P1;durP2;ratioP2;P2;SDS_P1;SDS_P2;PMS_P1;PMS_P2;Temp;Humidity;BMP_temperature;BMP_pressure;BME280_temperature;BME280_humidity;BME280_pressure;Samples;Min_cycle;Max_cycle;Signal;HPM_P1;HPM_P2
2022/01/29 00:00:07;;;;;;;14.67;9.40;;;1.80;99.90;;;;;;5051120;28;20258;-90
2022/01/29 00:03:23;;;;;;;12.77;8.87;;;1.90;99.90;;;;;;5051989;28;20220;-89
2022/01/29 00:05:49;;;;;;;16.60;10.03;;;1.90;99.90;;;;;;5051930;28;20204;-89
2022/01/29 00:08:16;;;;;;;19.83;10.70;;;1.90;99.90;;;;;;5051011;28;20177;-90
2022/01/29 00:10:44;;;;;;;19.00;10.87;;;1.80;99.90;;;;;;5051880;28;20181;-90
2022/01/29 00:13:10;;;;;;;16.63;10.20;;;1.90;99.90;;;;;;5051806;28;20205;-90
2022/01/29 00:15:50;;;;;;;12.70;8.17;;;1.80;99.90;;;;;;5110674;27;20538;-89
2022/01/29 00:18:16;;;;;;;13.97;8.50;;;1.80;99.90;;;;;;5109140;28;20171;-89
2022/01/29 00:20:41;;;;;;;13.13;8.27;;;1.80;99.90;;;;;;5109262;28;20180;-89
2022/01/29 00:23:07;;;;;;;10.67;7.70;;;1.80;99.90;;;;;;5109282;28;20199;-89
2022/01/29 00:25:33;;;;;;;14.13;8.40;;;1.80;99.90;;;;;;5092190;28;20271;-89
2022/01/29 00:28:00;;;;;;;14.10;9.23;;;1.80;99.90;;;;;;5091816;28;20191;-89
2022/01/29 00:30:35;;;;;;;13.60;8.37;;;1.90;99.90;;;;;;5092058;28;20176;-89
2022/01/29 00:33:01;;;;;;;14.77;7.73;;;1.90;99.90;;;;;;5091389;28;20240;-89
2022/01/29 00:35:27;;;;;;;11.83;7.87;;;1.90;99.90;;;;;;5092330;28;20211;-89
2022/01/29 00:37:53;;;;;;;10.07;7.43;;;1.90;99.90;;;;;;5091801;28;20184;-89
2022/01/29 00:40:20;;;;;;;11.30;7.60;;;1.90;99.90;;;;;;5091808;28;20213;-89
2022/01/29 00:42:46;;;;;;;10.73;7.27;;;1.90;99.90;;;;;;5092193;28;20202;-89
2022/01/29 00:45:12;;;;;;;12.90;6.90;;;1.90;99.90;;;;;;5091756;28;20239;-89
2022/01/29 00:47:38;;;;;;;9.97;6.87;;;1.90;99.90;;;;;;5092048;28;20184;-89
2022/01/29 00:50:05;;;;;;;12.00;7.43;;;1.90;99.90;;;;;;5092071;28;20239;-89
2022/01/29 00:52:31;;;;;;;11.57;6.87;;;1.90;99.90;;;;;;5092071;28;20196;-89
2022/01/29 00:54:57;;;;;;;12.57;7.53;;;1.90;99.90;;;;;;5091602;28;20203;-89
2022/01/29 00:57:24;;;;;;;12.50;7.03;;;1.90;99.90;;;;;;5091978;28;20179;-89
2022/01/29 00:59:49;;;;;;;8.90;6.03;;;1.90;99.90;;;;;;5091823;28;20179;-89
2022/01/29 01:02:15;;;;;;;10.43;6.17;;;1.90;99.90;;;;;;5091445;28;20203;-89
2022/01/29 01:04:41;;;;;;;9.87;6.10;;;1.80;99.90;;;;;;5091897;28;20179;-89
2022/01/29 01:07:09;;;;;;;9.20;5.90;;;1.80;99.90;;;;;;5091801;28;20606;-89
2022/01/29 01:09:35;;;;;;;8.90;6.27;;;1.80;99.90;;;;;;5091641;28;20217;-89
2022/01/29 01:12:01;;;;;;;7.40;5.40;;;1.70;99.90;;;;;;5091626;28;20210;-89
2022/01/29 01:14:27;;;;;;;7.53;5.40;;;1.70;99.90;;;;;;5091448;28;20664;-89
2022/01/29 01:16:53;;;;;;;10.60;6.20;;;1.60;99.90;;;;;;5091273;28;20315;-89
2022/01/29 01:19:25;;;;;;;8.63;5.83;;;1.60;99.90;;;;;;5091319;28;20179;-89
2022/01/29 01:21:53;;;;;;;8.90;6.07;;;1.60;99.90;;;;;;5091169;28;20196;-89
2022/01/29 01:24:19;;;;;;;9.20;5.93;;;1.60;99.90;;;;;;5091539;28;20177;-89
2022/01/29 01:26:45;;;;;;;10.33;5.80;;;1.60;99.90;;;;;;5080390;28;20176;-89
2022/01/29 01:29:11;;;;;;;10.23;6.37;;;1.60;99.90;;;;;;5077351;28;20554;-89
2022/01/29 01:31:37;;;;;;;8.83;5.37;;;1.50;99.90;;;;;;5077238;28;20254;-89
2022/01/29 01:34:05;;;;;;;10.43;5.70;;;1.60;99.90;;;;;;5077431;28;20212;-89
2022/01/29 01:36:33;;;;;;;8.00;5.67;;;1.60;99.90;;;;;;5077434;28;20247;-89
2022/01/29 01:39:05;;;;;;;7.13;4.73;;;1.50;99.90;;;;;;5077636;28;20179;-89
2022/01/29 01:41:37;;;;;;;10.33;5.43;;;1.50;99.90;;;;;;5077445;28;20178;-89
2022/01/29 01:44:04;;;;;;;8.23;5.40;;;1.60;99.90;;;;;;5077739;28;20172;-89
2022/01/29 01:46:30;;;;;;;8.30;4.97;;;1.60;99.90;;;;;;5077282;28;20615;-89
2022/01/29 01:48:57;;;;;;;7.13;4.67;;;1.70;99.90;;;;;;5077002;28;20183;-89
2022/01/29 01:51:24;;;;;;;8.47;5.40;;;1.70;99.90;;;;;;5077450;28;20185;-89
2022/01/29 01:53:50;;;;;;;7.97;4.60;;;1.70;99.90;;;;;;5077321;28;20211;-89
2022/01/29 01:56:16;;;;;;;7.63;4.43;;;1.80;99.90;;;;;;5077412;28;20179;-89
2022/01/29 01:58:42;;;;;;;6.60;4.27;;;1.80;99.90;;;;;;5077048;28;20186;-89
2022/01/29 02:01:08;;;;;;;8.77;4.33;;;1.80;99.90;;;;;;5077045;28;20173;-89
2022/01/29 02:03:34;;;;;;;6.20;4.50;;;1.80;99.90;;;;;;5077134;28;20283;-89
2022/01/29 02:06:01;;;;;;;5.20;4.10;;;1.80;99.90;;;;;;5076953;28;20230;-89
2022/01/29 02:09:13;;;;;;;7.67;4.03;;;1.80;99.90;;;;;;5076733;28;20184;-89
2022/01/29 02:11:52;;;;;;;7.47;4.47;;;1.80;99.90;;;;;;5077155;28;20263;-89
2022/01/29 02:14:20;;;;;;;4.77;3.70;;;1.90;99.90;;;;;;5076861;28;20215;-88
2022/01/29 02:16:46;;;;;;;5.80;3.80;;;1.90;99.90;;;;;;5077122;28;20181;-89
2022/01/29 02:19:12;;;;;;;7.70;4.20;;;1.90;99.90;;;;;;5076450;28;20255;-89
2022/01/29 02:21:38;;;;;;;6.57;3.90;;;1.90;99.90;;;;;;5076675;28;20317;-89
2022/01/29 02:24:27;;;;;;;6.30;3.40;;;1.90;99.90;;;;;;5076917;28;20180;-89
2022/01/29 02:26:53;;;;;;;7.30;3.43;;;1.90;99.90;;;;;;5076793;28;20202;-89
2022/01/29 02:29:20;;;;;;;6.53;3.90;;;1.90;99.90;;;;;;5076113;28;20550;-89
2022/01/29 02:31:54;;;;;;;5.80;4.20;;;1.90;99.90;;;;;;5076094;28;20182;-89
2022/01/29 02:34:21;;;;;;;5.33;4.10;;;1.90;99.90;;;;;;5076139;28;20619;-89
2022/01/29 02:36:47;;;;;;;8.37;4.73;;;1.90;99.90;;;;;;5075754;28;20179;-89
2022/01/29 02:39:17;;;;;;;5.90;4.53;;;2.00;99.90;;;;;;5074978;28;20184;-89
2022/01/29 02:41:44;;;;;;;6.13;4.53;;;1.90;99.90;;;;;;5075956;28;20527;-89
2022/01/29 02:44:18;;;;;;;7.37;4.57;;;2.00;99.90;;;;;;5075605;28;20277;-89
2022/01/29 02:49:17;;;;;;;5.23;4.70;;;2.00;99.90;;;;;;5093153;28;20184;-89
2022/01/29 02:51:49;;;;;;;7.97;5.33;;;2.00;99.90;;;;;;5076253;28;20332;-89
2022/01/29 02:54:16;;;;;;;6.97;5.20;;;2.00;99.90;;;;;;5075885;28;20208;-89
2022/01/29 02:56:43;;;;;;;7.33;5.27;;;2.00;99.90;;;;;;5075890;28;20175;-89
2022/01/29 02:59:09;;;;;;;8.37;5.43;;;1.90;99.90;;;;;;5075608;28;20184;-89
2022/01/29 03:01:35;;;;;;;8.90;5.30;;;2.00;99.90;;;;;;5075825;28;20294;-89
2022/01/29 03:04:02;;;;;;;8.30;5.57;;;1.90;99.90;;;;;;5075981;28;20187;-89
2022/01/29 03:06:29;;;;;;;7.17;4.97;;;1.90;99.90;;;;;;5075712;28;20200;-89
2022/01/29 03:08:55;;;;;;;7.60;5.00;;;1.90;99.90;;;;;;5075385;28;20265;-89
2022/01/29 03:11:20;;;;;;;8.23;4.90;;;1.90;99.90;;;;;;5075746;28;20188;-89
2022/01/29 03:13:47;;;;;;;8.50;4.73;;;1.90;99.90;;;;;;5075122;28;20214;-89
2022/01/29 03:16:13;;;;;;;7.83;5.20;;;1.90;99.90;;;;;;5092504;28;20194;-89
2022/01/29 03:18:39;;;;;;;8.27;4.97;;;1.80;99.90;;;;;;5075562;28;20188;-89
2022/01/29 03:21:05;;;;;;;6.73;5.00;;;1.90;99.90;;;;;;5076164;28;20278;-89
2022/01/29 03:23:33;;;;;;;7.03;4.97;;;1.80;99.90;;;;;;5075553;28;20196;-89
2022/01/29 03:26:00;;;;;;;8.33;4.97;;;1.80;99.90;;;;;;5075257;28;20175;-89
2022/01/29 03:28:27;;;;;;;8.03;5.30;;;1.80;99.90;;;;;;5074297;28;20255;-88
2022/01/29 03:30:55;;;;;;;7.33;4.37;;;1.80;99.90;;;;;;5057962;28;20176;-89
2022/01/29 03:33:24;;;;;;;6.53;4.87;;;1.80;99.90;;;;;;5075140;28;20204;-89
2022/01/29 03:35:50;;;;;;;8.80;4.73;;;1.80;99.90;;;;;;5091944;28;20208;-89
2022/01/29 03:38:16;;;;;;;8.00;5.40;;;1.70;99.90;;;;;;5074988;28;20215;-89
2022/01/29 03:40:44;;;;;;;9.00;5.47;;;1.70;99.90;;;;;;5075430;28;20195;-89
2022/01/29 03:43:13;;;;;;;9.70;5.00;;;1.70;99.90;;;;;;5075000;28;20243;-89
2022/01/29 03:45:39;;;;;;;8.17;4.87;;;1.70;99.90;;;;;;5075150;28;20177;-89
2022/01/29 03:48:08;;;;;;;9.37;5.27;;;1.70;99.90;;;;;;5074798;28;20201;-89
2022/01/29 03:50:36;;;;;;;6.77;4.67;;;1.70;99.90;;;;;;5075004;28;20177;-89
2022/01/29 03:53:03;;;;;;;6.87;4.60;;;1.70;99.90;;;;;;5074987;28;20199;-89
2022/01/29 03:55:29;;;;;;;6.50;4.60;;;1.70;99.90;;;;;;5075103;28;20297;-89
2022/01/29 03:57:56;;;;;;;6.73;4.50;;;1.70;99.90;;;;;;5074482;28;20273;-88
2022/01/29 04:00:22;;;;;;;7.40;4.10;;;1.70;99.90;;;;;;5091930;28;20168;-89
2022/01/29 04:02:48;;;;;;;7.30;4.30;;;1.80;99.90;;;;;;5071068;28;20210;-89
2022/01/29 04:05:13;;;;;;;8.13;4.23;;;1.80;99.90;;;;;;5055127;28;20283;-89
2022/01/29 04:07:41;;;;;;;5.40;4.23;;;1.70;99.90;;;;;;5054444;28;20184;-89
2022/01/29 04:10:07;;;;;;;6.77;4.57;;;1.80;99.90;;;;;;5054593;28;20212;-89
2022/01/29 04:12:40;;;;;;;5.00;3.70;;;1.80;99.90;;;;;;5054974;28;20203;-89
2022/01/29 04:15:06;;;;;;;6.00;4.23;;;1.80;99.90;;;;;;5054824;28;20215;-89
2022/01/29 04:17:36;;;;;;;7.47;4.60;;;1.80;99.90;;;;;;5054636;28;20173;-89
2022/01/29 04:20:04;;;;;;;6.60;3.80;;;1.70;99.90;;;;;;5054833;28;20181;-89
2022/01/29 04:22:34;;;;;;;7.47;3.80;;;1.70;99.90;;;;;;5054215;28;20270;-89
2022/01/29 04:25:04;;;;;;;6.07;4.57;;;1.70;99.90;;;;;;5054198;28;20226;-89
2022/01/29 04:27:37;;;;;;;4.80;3.70;;;1.70;99.90;;;;;;5054094;28;20176;-89
2022/01/29 04:30:09;;;;;;;6.77;4.10;;;1.70;99.90;;;;;;5053808;28;20169;-89
2022/01/29 04:32:58;;;;;;;8.33;4.00;;;1.70;99.90;;;;;;5072201;28;20203;-89
2022/01/29 04:35:21;;;;;;;9.90;3.80;;;1.70;99.90;;;;;;5090947;28;20204;-89
2022/01/29 04:37:49;;;;;;;5.17;3.83;;;1.70;99.90;;;;;;5074262;28;20234;-89
2022/01/29 04:40:16;;;;;;;5.20;3.80;;;1.70;99.90;;;;;;5074072;28;20199;-89
2022/01/29 04:42:42;;;;;;;7.27;3.80;;;1.70;99.90;;;;;;5074688;28;20283;-89
2022/01/29 04:45:08;;;;;;;6.43;3.73;;;1.70;99.90;;;;;;5074381;28;20211;-89
2022/01/29 04:47:34;;;;;;;8.57;4.00;;;1.70;99.90;;;;;;5074413;28;20193;-89
2022/01/29 04:50:00;;;;;;;4.97;3.57;;;1.70;99.90;;;;;;5074490;28;20188;-89
2022/01/29 04:52:26;;;;;;;6.00;3.40;;;1.70;99.90;;;;;;5090856;28;20794;-89
2022/01/29 04:54:52;;;;;;;5.73;3.50;;;1.80;99.90;;;;;;5074282;28;20299;-89
2022/01/29 04:57:17;;;;;;;5.03;3.80;;;1.80;99.90;;;;;;5074502;28;20192;-89
2022/01/29 04:59:43;;;;;;;5.60;3.27;;;1.80;99.90;;;;;;5073900;28;20184;-89
2022/01/29 05:02:09;;;;;;;6.37;3.80;;;1.80;99.90;;;;;;5076032;28;20197;-89
2022/01/29 05:04:35;;;;;;;5.27;3.37;;;1.80;99.90;;;;;;5077100;28;20192;-89
2022/01/29 05:10:49;;;;;;;6.83;4.47;;;1.90;99.90;;;;;;5096127;28;20271;-89
2022/01/29 05:13:20;;;;;;;6.33;4.47;;;1.90;99.90;;;;;;5078097;28;20195;-89
2022/01/29 05:27:03;;;;;;;5.70;3.80;;;1.90;99.90;;;;;;5094962;28;20181;-89
2022/01/29 05:29:32;;;;;;;7.70;3.83;;;1.90;99.90;;;;;;5094285;28;20644;-89
2022/01/29 05:32:07;;;;;;;5.13;3.50;;;1.90;99.90;;;;;;5077699;28;20207;-89
2022/01/29 05:34:35;;;;;;;7.70;3.37;;;1.90;99.90;;;;;;5094775;28;20200;-89
2022/01/29 05:37:02;;;;;;;5.00;3.17;;;2.00;99.90;;;;;;5077615;28;20183;-89
2022/01/29 05:39:32;;;;;;;4.40;3.20;;;2.00;99.90;;;;;;5094479;28;20184;-89
2022/01/29 05:45:27;;;;;;;5.90;3.03;;;2.00;99.90;;;;;;5094513;28;20200;-89
2022/01/29 05:47:52;;;;;;;5.60;2.77;;;2.00;99.90;;;;;;5077214;28;20173;-89
2022/01/29 05:50:18;;;;;;;4.27;2.80;;;2.00;99.90;;;;;;5077313;28;20191;-89
2022/01/29 05:52:44;;;;;;;3.93;2.87;;;2.00;99.90;;;;;;5077203;28;20254;-89
2022/01/29 05:55:28;;;;;;;6.37;3.20;;;2.00;99.90;;;;;;5076878;28;20254;-89
2022/01/29 05:57:54;;;;;;;6.07;3.37;;;1.90;99.90;;;;;;5077131;28;20169;-89
2022/01/29 06:00:33;;;;;;;4.03;2.67;;;1.90;99.90;;;;;;5093511;28;20184;-90
2022/01/29 06:03:00;;;;;;;6.63;3.07;;;2.00;99.90;;;;;;5071791;28;20208;-89
2022/01/29 06:05:28;;;;;;;4.67;3.37;;;2.00;99.90;;;;;;5057144;28;20246;-89
2022/01/29 06:07:54;;;;;;;5.17;3.40;;;2.00;99.90;;;;;;5056618;28;20649;-89
2022/01/29 06:10:48;;;;;;;5.10;3.23;;;2.00;99.90;;;;;;5056531;28;20245;-89
2022/01/29 06:13:16;;;;;;;5.97;3.07;;;2.00;99.90;;;;;;5073413;28;20220;-89
2022/01/29 06:15:44;;;;;;;5.00;3.10;;;2.00;99.90;;;;;;5056510;28;20588;-89
2022/01/29 06:18:13;;;;;;;5.17;2.90;;;1.90;99.90;;;;;;5056586;28;20200;-89
2022/01/29 06:20:40;;;;;;;7.07;3.60;;;1.90;99.90;;;;;;5056976;28;20180;-89
2022/01/29 06:23:07;;;;;;;7.40;4.03;;;2.00;99.90;;;;;;5056719;28;20235;-89
2022/01/29 06:25:33;;;;;;;10.30;4.60;;;2.00;99.90;;;;;;5073175;28;20189;-89
2022/01/29 06:27:59;;;;;;;10.20;6.17;;;2.00;99.90;;;;;;5056278;28;20185;-89
2022/01/29 06:30:25;;;;;;;14.63;9.50;;;2.00;99.90;;;;;;5056850;28;20703;-89
2022/01/29 06:32:51;;;;;;;10.77;6.63;;;2.00;99.90;;;;;;5056452;28;20209;-89
2022/01/29 06:35:16;;;;;;;8.30;5.80;;;2.10;99.90;;;;;;5072891;28;20265;-89
2022/01/29 06:38:01;;;;;;;7.73;4.47;;;2.10;99.90;;;;;;5072843;28;20180;-89
2022/01/29 06:40:27;;;;;;;5.83;4.00;;;2.10;99.90;;;;;;5072967;28;20223;-89
2022/01/29 06:43:30;;;;;;;6.70;3.77;;;2.10;99.90;;;;;;5073128;28;20213;-89
2022/01/29 06:45:57;;;;;;;5.60;3.20;;;2.20;99.90;;;;;;5056433;28;20184;-89
2022/01/29 06:48:23;;;;;;;4.10;3.20;;;2.20;99.90;;;;;;5072541;28;20231;-89
2022/01/29 06:50:49;;;;;;;4.23;3.20;;;2.20;99.90;;;;;;5072553;28;20223;-89
2022/01/29 06:53:15;;;;;;;5.77;3.03;;;2.20;99.90;;;;;;5072077;28;20272;-89
2022/01/29 06:55:41;;;;;;;6.43;3.57;;;2.20;99.90;;;;;;5072562;28;20201;-89
2022/01/29 06:58:06;;;;;;;5.90;3.60;;;2.20;99.90;;;;;;5072512;28;20185;-89
2022/01/29 07:00:51;;;;;;;5.57;3.17;;;2.20;99.90;;;;;;5072453;28;20184;-89
2022/01/29 07:03:17;;;;;;;4.33;2.77;;;2.30;99.90;;;;;;5080194;28;20224;-89
2022/01/29 07:05:42;;;;;;;6.73;3.27;;;2.30;99.90;;;;;;5075944;28;20277;-89
2022/01/29 07:08:08;;;;;;;4.03;2.90;;;2.30;99.90;;;;;;5075625;28;20195;-89
2022/01/29 07:10:37;;;;;;;3.67;2.50;;;2.30;99.90;;;;;;5075820;28;20248;-89
2022/01/29 07:13:02;;;;;;;3.83;2.40;;;2.30;99.90;;;;;;5076447;28;20242;-89
2022/01/29 07:15:28;;;;;;;3.03;2.27;;;2.30;99.90;;;;;;5076399;28;20204;-89
2022/01/29 07:17:54;;;;;;;4.47;2.70;;;2.30;99.90;;;;;;5075964;28;20184;-89
2022/01/29 07:20:20;;;;;;;5.10;3.23;;;2.40;99.90;;;;;;5093344;28;20568;-89
2022/01/29 07:22:46;;;;;;;4.30;3.10;;;2.40;99.90;;;;;;5076044;28;20249;-89
2022/01/29 07:25:12;;;;;;;3.57;3.17;;;2.40;99.90;;;;;;5092405;28;20227;-89
2022/01/29 07:27:38;;;;;;;5.00;3.17;;;2.40;99.90;;;;;;5076244;28;20225;-89
2022/01/29 07:30:05;;;;;;;5.23;3.10;;;2.40;99.90;;;;;;5075827;28;20184;-89
2022/01/29 07:32:31;;;;;;;5.37;2.90;;;2.40;99.90;;;;;;5075508;28;20207;-89
2022/01/29 07:34:57;;;;;;;4.87;2.90;;;2.40;99.90;;;;;;5075030;28;20204;-89
2022/01/29 07:37:23;;;;;;;6.07;3.30;;;2.50;99.90;;;;;;5075814;28;20241;-89
2022/01/29 07:39:49;;;;;;;4.07;2.57;;;2.50;99.90;;;;;;5075344;28;20172;-89
2022/01/29 07:42:15;;;;;;;6.10;3.10;;;2.50;99.90;;;;;;5075989;28;20668;-89
2022/01/29 07:44:41;;;;;;;5.77;2.83;;;2.50;99.90;;;;;;5075649;28;20211;-89
2022/01/29 07:47:07;;;;;;;7.37;3.00;;;2.60;99.90;;;;;;5075606;28;20219;-89
2022/01/29 07:49:33;;;;;;;3.80;2.73;;;2.50;99.90;;;;;;5075255;28;20177;-89
2022/01/29 07:52:01;;;;;;;4.80;3.10;;;2.60;99.90;;;;;;5075884;28;20211;-89
2022/01/29 07:54:28;;;;;;;5.13;3.00;;;2.60;99.90;;;;;;5075332;28;20215;-89
2022/01/29 07:56:54;;;;;;;4.07;2.80;;;2.60;99.90;;;;;;5074886;28;20188;-89
2022/01/29 07:59:19;;;;;;;4.57;3.17;;;2.60;99.90;;;;;;5075165;28;20184;-89
2022/01/29 08:01:45;;;;;;;4.60;4.00;;;2.60;99.90;;;;;;5074925;28;20653;-89
2022/01/29 08:04:11;;;;;;;7.13;4.40;;;2.60;99.90;;;;;;5075279;28;20188;-89
2022/01/29 08:06:37;;;;;;;18.43;9.00;;;2.60;99.90;;;;;;5075033;28;20258;-90
2022/01/29 08:09:03;;;;;;;15.33;9.33;;;2.60;99.90;;;;;;5075379;28;20719;-83
2022/01/29 08:11:29;;;;;;;10.30;6.17;;;2.70;99.90;;;;;;5075524;28;20217;-86
2022/01/29 08:13:55;;;;;;;8.63;5.10;;;2.70;99.90;;;;;;5091669;28;20191;-89
2022/01/29 08:16:21;;;;;;;7.63;4.47;;;2.70;99.90;;;;;;5074571;28;20189;-89
2022/01/29 08:18:47;;;;;;;6.40;4.73;;;2.80;99.90;;;;;;5075117;28;20176;-89
2022/01/29 08:21:14;;;;;;;27.60;13.40;;;2.90;99.90;;;;;;5074774;28;20172;-89
2022/01/29 08:23:41;;;;;;;37.13;17.70;;;2.90;99.90;;;;;;5091524;28;20272;-88
2022/01/29 08:26:07;;;;;;;13.40;7.57;;;2.90;99.90;;;;;;5091709;28;20205;-89
2022/01/29 08:28:33;;;;;;;8.53;5.57;;;3.00;99.90;;;;;;5074809;28;20202;-89
2022/01/29 08:30:59;;;;;;;6.60;4.90;;;3.00;99.90;;;;;;5074719;28;20176;-88
2022/01/29 08:33:25;;;;;;;9.63;4.33;;;3.00;99.90;;;;;;5065689;28;20216;-88
2022/01/29 08:35:52;;;;;;;7.30;4.23;;;3.00;99.90;;;;;;5055324;28;20211;-88
2022/01/29 08:38:18;;;;;;;6.70;4.23;;;3.10;99.90;;;;;;5058752;28;20517;-87
2022/01/29 08:40:44;;;;;;;7.63;4.43;;;3.10;99.90;;;;;;5058441;28;20234;-89
2022/01/29 08:43:10;;;;;;;8.20;4.17;;;3.20;99.90;;;;;;5058594;28;20197;-87
2022/01/29 08:45:36;;;;;;;5.67;3.63;;;3.30;99.90;;;;;;5075145;28;20277;-86
2022/01/29 08:48:02;;;;;;;6.77;4.30;;;3.30;99.90;;;;;;5058210;28;20241;-87
2022/01/29 08:50:28;;;;;;;6.13;4.50;;;3.40;99.90;;;;;;5059133;28;20173;-89
2022/01/29 08:52:54;;;;;;;8.50;4.73;;;3.40;99.90;;;;;;5058674;28;20205;-89
2022/01/29 08:55:20;;;;;;;6.77;4.57;;;3.40;99.90;;;;;;5058610;28;20201;-89
2022/01/29 08:57:46;;;;;;;7.43;5.50;;;3.50;99.90;;;;;;5078566;28;20181;-89
2022/01/29 09:00:16;;;;;;;9.47;6.17;;;3.50;99.90;;;;;;5078182;28;20263;-89
2022/01/29 09:02:42;;;;;;;8.33;5.17;;;3.50;99.90;;;;;;5078047;28;20203;-89
2022/01/29 09:05:10;;;;;;;8.33;5.40;;;3.50;99.90;;;;;;5078809;28;20180;-89
2022/01/29 09:07:36;;;;;;;12.37;6.90;;;3.50;99.90;;;;;;5078252;28;20183;-89
2022/01/29 09:10:03;;;;;;;9.47;6.50;;;3.50;99.90;;;;;;5078375;28;20173;-89
2022/01/29 09:12:30;;;;;;;9.50;5.87;;;3.50;99.90;;;;;;5078263;28;20226;-89
2022/01/29 09:14:57;;;;;;;10.60;6.40;;;3.50;99.90;;;;;;5078626;28;20258;-88
2022/01/29 09:17:25;;;;;;;9.40;6.87;;;3.50;99.90;;;;;;5076429;28;20199;-89
2022/01/29 09:19:54;;;;;;;9.27;6.07;;;3.50;99.90;;;;;;5078702;28;20169;-89
2022/01/29 09:22:22;;;;;;;12.20;6.90;;;3.50;99.90;;;;;;5078512;28;20201;-88
2022/01/29 09:24:48;;;;;;;10.83;6.53;;;3.40;99.90;;;;;;5078322;28;20249;-88
2022/01/29 09:27:14;;;;;;;10.80;7.20;;;3.40;99.90;;;;;;5078268;28;20180;-88
2022/01/29 09:29:40;;;;;;;11.03;6.63;;;3.40;99.90;;;;;;5077999;28;20192;-89
2022/01/29 09:32:06;;;;;;;10.43;6.87;;;3.30;99.90;;;;;;5095056;28;20225;-89
2022/01/29 09:34:32;;;;;;;9.73;6.30;;;3.30;99.90;;;;;;5078158;28;20215;-88
2022/01/29 09:36:58;;;;;;;10.80;6.80;;;3.40;99.90;;;;;;5077889;28;20169;-89
2022/01/29 09:39:24;;;;;;;16.23;6.60;;;3.40;99.90;;;;;;5078997;28;20401;-88
2022/01/29 09:41:50;;;;;;;10.87;6.20;;;3.50;99.90;;;;;;5074562;28;20235;-89
2022/01/29 09:44:16;;;;;;;10.73;7.07;;;3.60;99.90;;;;;;5074416;28;20268;-88
2022/01/29 09:46:44;;;;;;;13.80;6.77;;;3.60;99.90;;;;;;5074070;28;20272;-89
2022/01/29 09:49:11;;;;;;;10.30;6.93;;;3.70;99.90;;;;;;5084514;28;20173;-91
2022/01/29 09:51:38;;;;;;;12.57;7.57;;;3.70;99.90;;;;;;5077560;28;20180;-89
2022/01/29 09:54:05;;;;;;;11.70;6.53;;;3.80;99.90;;;;;;5077227;28;20183;-89
2022/01/29 09:56:33;;;;;;;9.90;6.57;;;3.80;99.90;;;;;;5090202;28;20174;-89
2022/01/29 09:58:58;;;;;;;13.27;6.97;;;3.90;99.90;;;;;;5079300;28;20188;-89
2022/01/29 10:01:24;;;;;;;10.40;6.17;;;4.00;99.90;;;;;;5077961;28;20180;-89
2022/01/29 10:04:00;;;;;;;13.63;6.57;;;4.10;99.90;;;;;;5078769;28;20249;-89
2022/01/29 10:06:30;;;;;;;8.80;6.20;;;4.20;99.90;;;;;;5077356;28;20176;-88
2022/01/29 10:08:57;;;;;;;9.77;6.73;;;4.30;99.90;;;;;;5075068;28;20452;-89
2022/01/29 10:11:27;;;;;;;9.77;6.30;;;4.40;99.90;;;;;;5091222;28;20182;-89
2022/01/29 10:14:01;;;;;;;18.17;6.90;;;4.60;99.90;;;;;;5089844;28;20218;-89
2022/01/29 10:16:29;;;;;;;8.57;5.80;;;4.70;99.90;;;;;;5087417;28;20168;-89
2022/01/29 10:19:04;;;;;;;10.63;6.47;;;4.80;99.90;;;;;;5073708;28;20234;-89
2022/01/29 10:21:47;;;;;;;9.67;6.60;;;4.90;99.90;;;;;;5073739;28;20173;-89
2022/01/29 10:24:13;;;;;;;11.30;6.70;;;5.10;99.90;;;;;;5064221;28;20182;-89
2022/01/29 10:26:50;;;;;;;12.60;6.43;;;5.30;99.90;;;;;;5056893;28;20213;-89
2022/01/29 10:29:21;;;;;;;10.77;5.50;;;5.50;99.90;;;;;;5073284;28;20171;-89
2022/01/29 10:31:48;;;;;;;6.83;5.20;;;5.50;99.90;;;;;;5073791;28;20186;-89
2022/01/29 10:34:15;;;;;;;8.67;5.13;;;5.50;99.90;;;;;;5072411;28;20262;-89
2022/01/29 10:36:41;;;;;;;10.37;5.07;;;5.50;99.90;;;;;;5076396;28;20190;-90
2022/01/29 10:39:07;;;;;;;9.10;5.10;;;5.40;99.90;;;;;;5076869;28;20227;-89
2022/01/29 10:41:33;;;;;;;7.33;4.57;;;5.40;99.90;;;;;;5076437;28;20182;-89
2022/01/29 10:44:18;;;;;;;5.67;3.90;;;5.50;99.90;;;;;;5076902;28;20178;-89
2022/01/29 10:46:49;;;;;;;6.17;3.80;;;5.50;99.90;;;;;;5056131;28;20184;-88
2022/01/29 10:49:28;;;;;;;4.73;3.07;;;5.40;99.90;;;;;;5056538;28;20224;-89
2022/01/29 10:52:04;;;;;;;9.03;4.67;;;5.40;99.90;;;;;;5059561;28;20189;-89
2022/01/29 10:54:35;;;;;;;11.70;4.67;;;5.50;99.90;;;;;;5076643;28;20303;-89
2022/01/29 10:57:07;;;;;;;5.50;3.40;;;5.60;99.90;;;;;;5076554;28;20624;-88
2022/01/29 10:59:36;;;;;;;7.37;4.10;;;5.70;99.90;;;;;;5075284;28;20184;-89
2022/01/29 11:02:08;;;;;;;5.73;3.07;;;5.90;99.90;;;;;;5076122;28;20724;-89
2022/01/29 11:04:36;;;;;;;5.57;3.53;;;5.90;99.90;;;;;;5076384;28;20192;-89
2022/01/29 11:07:06;;;;;;;4.27;3.17;;;5.80;99.90;;;;;;5076721;28;20542;-89
2022/01/29 11:09:33;;;;;;;6.10;3.27;;;5.80;99.90;;;;;;5093250;28;20245;-89
2022/01/29 11:12:03;;;;;;;7.43;3.30;;;5.80;99.90;;;;;;5076375;28;20283;-89
2022/01/29 11:14:31;;;;;;;3.63;2.60;;;5.80;99.90;;;;;;5076077;28;20291;-89
2022/01/29 11:16:59;;;;;;;4.07;2.77;;;5.80;99.90;;;;;;5076129;28;20175;-89
2022/01/29 11:19:24;;;;;;;4.33;2.30;;;5.80;99.90;;;;;;5080807;28;20187;-89
2022/01/29 11:21:53;;;;;;;3.93;2.20;;;5.70;99.90;;;;;;5081165;28;20198;-89
2022/01/29 11:24:23;;;;;;;7.87;2.67;;;5.70;99.90;;;;;;5076200;28;20179;-89
2022/01/29 11:26:50;;;;;;;2.40;2.17;;;5.60;99.90;;;;;;5087804;28;20290;-89
2022/01/29 11:29:31;;;;;;;4.33;2.60;;;5.60;99.90;;;;;;5081628;28;20184;-89
2022/01/29 11:32:22;;;;;;;2.80;2.23;;;5.60;99.90;;;;;;5065180;28;20215;-89
2022/01/29 11:35:10;;;;;;;2.87;1.90;;;5.70;99.90;;;;;;5086018;28;20210;-89
2022/01/29 11:37:50;;;;;;;4.43;2.33;;;5.70;99.90;;;;;;5072047;28;20173;-89
2022/01/29 11:40:34;;;;;;;2.47;2.00;;;5.80;99.90;;;;;;5069099;28;20179;-89
2022/01/29 11:43:09;;;;;;;3.00;2.10;;;5.90;99.90;;;;;;5057779;28;20265;-90
2022/01/29 11:45:49;;;;;;;2.87;1.80;;;6.10;99.90;;;;;;5074179;28;20175;-89
2022/01/29 11:48:25;;;;;;;4.97;2.27;;;6.10;99.90;;;;;;5054977;28;20277;-90
2022/01/29 11:50:52;;;;;;;2.50;2.00;;;6.10;99.90;;;;;;5079450;28;20179;-89
2022/01/29 11:53:20;;;;;;;3.33;2.20;;;6.10;99.90;;;;;;5075451;28;20235;-89
2022/01/29 11:55:53;;;;;;;4.97;2.90;;;6.00;99.90;;;;;;5075006;28;20211;-89
2022/01/29 11:58:24;;;;;;;2.13;1.90;;;6.00;99.90;;;;;;5074902;28;20226;-90
2022/01/29 12:00:55;;;;;;;4.07;2.10;;;6.10;99.90;;;;;;5074852;28;20227;-89
2022/01/29 12:03:44;;;;;;;4.37;2.40;;;6.10;99.90;;;;;;5083541;28;20247;-89
2022/01/29 12:12:11;;;;;;;4.90;2.83;;;6.20;99.90;;;;;;5091840;28;20195;-89
2022/01/29 12:14:38;;;;;;;3.53;2.10;;;6.20;99.90;;;;;;5070997;28;20212;-89
2022/01/29 12:17:08;;;;;;;5.67;2.90;;;6.10;99.90;;;;;;5081741;28;20207;-89
2022/01/29 12:19:48;;;;;;;3.37;2.67;;;6.10;99.90;;;;;;5074976;28;20182;-90
2022/01/29 12:22:28;;;;;;;4.33;2.20;;;6.10;99.90;;;;;;5091340;28;20205;-89
2022/01/29 12:24:59;;;;;;;2.63;2.03;;;6.20;99.90;;;;;;5072768;28;20195;-89
2022/01/29 12:27:51;;;;;;;2.47;1.73;;;6.20;99.90;;;;;;5058865;28;20220;-90
2022/01/29 12:30:22;;;;;;;3.43;2.33;;;6.20;99.90;;;;;;5073265;28;20190;-90
2022/01/29 12:33:00;;;;;;;2.30;1.70;;;6.10;99.90;;;;;;5074524;28;20237;-91
2022/01/29 12:35:49;;;;;;;4.50;2.60;;;6.10;99.90;;;;;;5084909;28;20229;-88
2022/01/29 12:38:46;;;;;;;3.50;2.27;;;6.10;99.90;;;;;;5082939;28;20789;-88
2022/01/29 12:41:25;;;;;;;5.47;3.70;;;6.20;99.90;;;;;;5067482;28;20177;-88
2022/01/29 12:46:29;;;;;;;9.80;3.70;;;6.20;99.90;;;;;;5090481;28;20260;-88
2022/01/29 12:49:05;;;;;;;6.43;2.93;;;6.10;99.90;;;;;;5087007;28;20173;-89
2022/01/29 12:51:59;;;;;;;9.07;4.27;;;6.10;99.90;;;;;;5074714;28;20171;-88
2022/01/29 12:54:29;;;;;;;4.10;2.70;;;6.10;99.90;;;;;;5074574;28;20222;-88
2022/01/29 12:57:00;;;;;;;5.43;3.50;;;6.10;99.90;;;;;;5074905;28;20266;-89
2022/01/29 12:59:35;;;;;;;5.83;3.03;;;6.10;99.90;;;;;;5091436;28;20231;-88
2022/01/29 13:02:05;;;;;;;3.67;2.70;;;6.10;99.90;;;;;;5074670;28;20683;-88
2022/01/29 13:04:31;;;;;;;3.20;2.30;;;6.10;99.90;;;;;;5091260;28;20187;-89
2022/01/29 13:07:03;;;;;;;5.47;2.47;;;6.10;99.90;;;;;;5074498;28;20190;-89
2022/01/29 13:09:55;;;;;;;3.37;2.10;;;6.10;99.90;;;;;;5091302;28;20194;-89
2022/01/29 13:12:22;;;;;;;3.47;2.20;;;6.10;99.90;;;;;;5062722;28;20199;-89
2022/01/29 13:14:52;;;;;;;4.07;2.80;;;6.10;99.90;;;;;;5074722;28;20205;-89
2022/01/29 13:17:21;;;;;;;2.73;2.13;;;6.10;99.90;;;;;;5074544;28;20178;-89
2022/01/29 13:19:50;;;;;;;4.43;2.80;;;6.10;99.90;;;;;;5073549;28;20191;-89
2022/01/29 13:22:16;;;;;;;4.70;2.93;;;6.10;99.90;;;;;;5071683;28;20211;-89
2022/01/29 13:24:44;;;;;;;5.07;2.83;;;6.10;99.90;;;;;;5075965;28;20190;-88
2022/01/29 13:27:12;;;;;;;5.00;2.93;;;6.10;99.90;;;;;;5078205;28;20270;-89
2022/01/29 13:29:53;;;;;;;7.10;3.83;;;6.10;99.90;;;;;;5078018;28;20186;-89
2022/01/29 13:32:30;;;;;;;6.07;3.10;;;6.10;99.90;;;;;;5095856;28;20722;-88
2022/01/29 13:35:29;;;;;;;3.50;2.27;;;6.10;99.90;;;;;;5077635;28;20234;-88